Main page
METAR-TAF:

METAR-TAF

Airports :

Bandaranaike International Airport

Colombo, Sri Lanka

latitude: 07-10N, longitude: 079-53E, elevation: 8 m

Current weather observation

The report was made 1 hour and 1 minutes ago, at 16:10 UTC
Wind 2 kt from variable directions
Temperature 25°C
Humidity 89%
Pressure 1013 hPa
Visibility: 9000 m
Few clouds at a height of 1600 ft

METAR: VCBI 211610Z VRB02KT 9000 FEW016 25/23 Q1013 NOSIG

Time: 22:41 (17:11 UTC)

Forecast

The report was made 6 hours and 11 minutes ago, at 11:00 UTC
Forecast valid from 21 at 12 UTC to 22 at 18 UTC
Wind 5 kt from variable directions
Visibility 10 km or more
Scattered clouds at a height of 1800 ft
Probability 30% :
Temporary
from 21 at 12 UTC to 21 at 18 UTC
Visibility: 7000 m
Broken clouds at a height of 1600 ft
Few clouds at a height of 2000 ft, Cumulonimbus.

TAF: VCBI 211100Z 2112/2218 VRB05KT 9999 SCT018 TX31/2207Z TN25/2200Z PROB30 TEMPO 2112/2118 2207/2212 7000 -TSRA/SHRA BKN016 FEW020CB

Weather observations and forecasts of more than 4000 airports (METAR and TAF reports).

The available stations are represented by yellow and red dots on the map.

Hover mouse over dot to see the name of the station.

Then click to see weather observations and forecasts.

To change the map : click on the green buttons with a black cross to zoom in, on the green button with a dash to zoom out, or on the green arrows for adjacent maps.


METAR-TAF: